Time;durP1;ratioP1;P1;durP2;ratioP2;P2;SDS_P1;SDS_P2;PMS_P1;PMS_P2;Temp;Humidity;BMP_temperature;BMP_pressure;BME280_temperature;BME280_humidity;BME280_pressure;Samples;Min_cycle;Max_cycle;Signal;HPM_P1;HPM_P2
2023/04/10 00:00:29;;;;;;;;;;;17.00;64.30;;;;;;5075154;28;883;-68
2023/04/10 00:02:55;;;;;;;;;;;17.00;64.40;;;;;;5071781;28;914;-68
2023/04/10 00:05:20;;;;;;;;;;;17.10;64.40;;;;;;5074622;28;1337;-68
2023/04/10 00:07:46;;;;;;;;;;;17.00;64.40;;;;;;5074610;28;1583;-68
2023/04/10 00:10:11;;;;;;;;;;;17.00;64.40;;;;;;5074541;28;887;-68
2023/04/10 00:12:37;;;;;;;;;;;17.00;64.40;;;;;;5073520;28;1906;-68
2023/04/10 00:15:03;;;;;;;;;;;17.00;64.40;;;;;;5069517;28;816;-68
2023/04/10 00:17:29;;;;;;;;;;;17.00;64.50;;;;;;5069422;28;1286;-67
2023/04/10 00:19:54;;;;;;;;;;;17.00;64.50;;;;;;5076594;28;936;-68
2023/04/10 00:22:20;;;;;;;;;;;17.00;64.40;;;;;;5073921;28;796;-68
2023/04/10 00:24:45;;;;;;;;;;;17.00;64.50;;;;;;5071416;28;916;-68
2023/04/10 00:27:11;;;;;;;;;;;17.00;64.50;;;;;;5066079;28;1245;-68
2023/04/10 00:29:36;;;;;;;;;;;17.00;64.50;;;;;;5071931;28;1018;-68
2023/04/10 00:32:02;;;;;;;;;;;17.00;64.50;;;;;;5072512;28;1918;-68
2023/04/10 00:34:27;;;;;;;;;;;17.00;64.50;;;;;;5071015;28;850;-68
2023/04/10 00:36:53;;;;;;;;;;;17.00;64.60;;;;;;5071549;28;1342;-68
2023/04/10 00:39:18;;;;;;;;;;;17.00;64.60;;;;;;5072841;28;851;-68
2023/04/10 00:41:44;;;;;;;;;;;17.00;64.60;;;;;;5068617;28;912;-68
2023/04/10 00:44:09;;;;;;;;;;;17.00;64.60;;;;;;5073878;28;808;-68
2023/04/10 00:46:36;;;;;;;;;;;17.00;64.70;;;;;;5073963;28;1317;-68
2023/04/10 00:49:01;;;;;;;;;;;17.00;64.60;;;;;;5072631;28;821;-68
2023/04/10 00:51:27;;;;;;;;;;;17.00;64.70;;;;;;5074212;28;1890;-68
2023/04/10 00:53:55;;;;;;;;;;;17.00;64.70;;;;;;5076427;28;850;-68
2023/04/10 00:56:20;;;;;;;;;;;17.00;64.70;;;;;;5070923;28;1248;-68
2023/04/10 00:58:46;;;;;;;;;;;17.00;64.70;;;;;;5073795;28;877;-68
2023/04/10 01:01:11;;;;;;;;;;;17.00;64.70;;;;;;5077470;28;842;-68
2023/04/10 01:03:38;;;;;;;;;;;17.00;64.70;;;;;;5068440;28;788;-68
2023/04/10 01:06:22;;;;;;;;;;;17.00;64.70;;;;;;5066010;28;1373;-68
2023/04/10 01:08:50;;;;;;;;;;;17.00;64.80;;;;;;5077835;28;868;-68
2023/04/10 01:11:25;;;;;;;;;;;17.00;64.80;;;;;;5077683;28;1960;-68
2023/04/10 01:13:57;;;;;;;;;;;17.00;64.80;;;;;;5070388;28;1438;-68
2023/04/10 01:16:27;;;;;;;;;;;16.90;64.70;;;;;;5069241;28;1289;-68
2023/04/10 01:18:54;;;;;;;;;;;17.00;64.80;;;;;;5075861;28;1742;-67
2023/04/10 01:21:19;;;;;;;;;;;17.00;64.80;;;;;;5071766;28;1370;-67
2023/04/10 01:23:53;;;;;;;;;;;16.90;64.80;;;;;;5063919;28;1438;-66
2023/04/10 01:26:22;;;;;;;;;;;17.00;64.80;;;;;;5070517;28;1438;-68
2023/04/10 01:28:48;;;;;;;;;;;17.00;64.90;;;;;;5078458;28;1257;-69
2023/04/10 01:31:20;;;;;;;;;;;16.90;64.80;;;;;;5074542;28;1925;-69
2023/04/10 01:33:46;;;;;;;;;;;17.00;64.90;;;;;;5073393;28;1286;-69
2023/04/10 01:36:12;;;;;;;;;;;17.00;64.90;;;;;;5073150;28;1668;-69
2023/04/10 01:38:38;;;;;;;;;;;16.90;64.90;;;;;;5075172;28;1439;-70
2023/04/10 01:41:04;;;;;;;;;;;17.00;64.90;;;;;;5074890;28;1670;-67
2023/04/10 01:43:30;;;;;;;;;;;16.90;64.80;;;;;;5078491;28;1326;-67
2023/04/10 01:45:56;;;;;;;;;;;17.00;64.90;;;;;;5074690;28;1414;-67
2023/04/10 01:48:21;;;;;;;;;;;16.90;64.90;;;;;;5070962;28;1534;-69
2023/04/10 01:50:47;;;;;;;;;;;16.90;64.90;;;;;;5076386;28;1906;-69
2023/04/10 01:53:12;;;;;;;;;;;16.90;64.90;;;;;;5072893;28;1049;-69
2023/04/10 01:55:38;;;;;;;;;;;16.90;64.90;;;;;;5069222;28;1266;-69
2023/04/10 01:58:06;;;;;;;;;;;16.90;64.90;;;;;;5068819;28;872;-69
2023/04/10 02:00:40;;;;;;;;;;;16.90;64.90;;;;;;5069153;28;849;-68
2023/04/10 02:03:06;;;;;;;;;;;16.90;64.90;;;;;;5068756;28;863;-69
2023/04/10 02:05:33;;;;;;;;;;;16.90;64.90;;;;;;5072643;28;1386;-69
2023/04/10 02:08:04;;;;;;;;;;;16.90;64.90;;;;;;5069633;28;886;-68
2023/04/10 02:10:36;;;;;;;;;;;16.90;65.00;;;;;;5070312;28;908;-69
2023/04/10 02:13:05;;;;;;;;;;;16.90;65.00;;;;;;5071152;28;1964;-68
2023/04/10 02:15:33;;;;;;;;;;;16.90;65.00;;;;;;5069547;28;1288;-69
2023/04/10 02:17:59;;;;;;;;;;;16.90;65.00;;;;;;5069804;28;887;-68
2023/04/10 02:20:25;;;;;;;;;;;16.90;65.10;;;;;;5072509;28;859;-69
2023/04/10 02:22:51;;;;;;;;;;;16.90;65.00;;;;;;5059255;28;888;-69
2023/04/10 02:25:16;;;;;;;;;;;16.90;65.00;;;;;;5067033;28;1666;-69
2023/04/10 02:27:42;;;;;;;;;;;16.90;65.00;;;;;;5069769;28;897;-68
2023/04/10 02:30:07;;;;;;;;;;;16.90;65.10;;;;;;5073605;28;1596;-68
2023/04/10 02:32:33;;;;;;;;;;;16.90;65.00;;;;;;5070835;28;1934;-68
2023/04/10 02:34:58;;;;;;;;;;;16.90;65.10;;;;;;5070670;28;875;-68
2023/04/10 02:37:24;;;;;;;;;;;16.90;65.10;;;;;;5072716;28;1460;-68
2023/04/10 02:39:50;;;;;;;;;;;16.90;65.10;;;;;;5073131;28;903;-68
2023/04/10 02:42:15;;;;;;;;;;;16.90;65.10;;;;;;5069748;28;887;-68
2023/04/10 02:44:41;;;;;;;;;;;16.90;65.10;;;;;;5069570;28;788;-68
2023/04/10 02:47:06;;;;;;;;;;;16.90;65.10;;;;;;5071475;28;1380;-69
2023/04/10 02:49:33;;;;;;;;;;;16.90;65.10;;;;;;5080560;28;1352;-69
2023/04/10 02:51:59;;;;;;;;;;;16.90;65.10;;;;;;5076436;28;1945;-69
2023/04/10 02:54:24;;;;;;;;;;;16.90;65.20;;;;;;5079521;28;899;-68
2023/04/10 02:56:49;;;;;;;;;;;16.90;65.20;;;;;;5074133;28;1349;-68
2023/04/10 02:59:15;;;;;;;;;;;16.90;65.20;;;;;;5076682;28;875;-68
2023/04/10 03:01:40;;;;;;;;;;;16.90;65.20;;;;;;5076938;28;860;-68
2023/04/10 03:04:06;;;;;;;;;;;16.90;65.20;;;;;;5078322;28;913;-69
2023/04/10 03:06:31;;;;;;;;;;;16.90;65.20;;;;;;5077963;28;1335;-69
2023/04/10 03:08:57;;;;;;;;;;;16.90;65.20;;;;;;5076945;28;796;-68
2023/04/10 03:11:22;;;;;;;;;;;16.90;65.20;;;;;;5075489;28;1959;-68
2023/04/10 03:13:48;;;;;;;;;;;16.90;65.20;;;;;;5072805;28;871;-69
2023/04/10 03:16:14;;;;;;;;;;;16.90;65.20;;;;;;5073410;28;1262;-69
2023/04/10 03:18:40;;;;;;;;;;;16.90;65.30;;;;;;5074989;28;836;-68
2023/04/10 03:21:05;;;;;;;;;;;16.90;65.20;;;;;;5079234;28;883;-68
2023/04/10 03:23:31;;;;;;;;;;;16.90;65.30;;;;;;5078603;28;908;-68
2023/04/10 03:25:56;;;;;;;;;;;16.90;65.30;;;;;;5071437;28;1204;-68
2023/04/10 03:28:22;;;;;;;;;;;16.90;65.30;;;;;;5075194;28;1285;-68
2023/04/10 03:30:48;;;;;;;;;;;16.80;65.20;;;;;;5073416;28;1963;-70
2023/04/10 03:33:14;;;;;;;;;;;16.90;65.40;;;;;;5078719;28;850;-70
2023/04/10 03:35:40;;;;;;;;;;;16.90;65.30;;;;;;5075963;28;1284;-70
2023/04/10 03:38:05;;;;;;;;;;;16.90;65.40;;;;;;5077859;28;1358;-70
2023/04/10 03:40:33;;;;;;;;;;;16.90;65.30;;;;;;5076794;28;867;-70
2023/04/10 03:42:58;;;;;;;;;;;16.90;65.30;;;;;;5079367;28;913;-68
2023/04/10 03:45:24;;;;;;;;;;;16.90;65.30;;;;;;5079600;28;1372;-69
2023/04/10 03:47:49;;;;;;;;;;;16.90;65.30;;;;;;5079608;28;859;-69
2023/04/10 03:50:15;;;;;;;;;;;16.90;65.20;;;;;;5072440;28;820;-69
2023/04/10 03:52:40;;;;;;;;;;;16.90;65.20;;;;;;5071711;28;1894;-69
2023/04/10 03:55:06;;;;;;;;;;;16.90;65.20;;;;;;5076285;28;1242;-68
2023/04/10 03:57:31;;;;;;;;;;;16.90;65.20;;;;;;5079163;28;1034;-69
2023/04/10 03:59:57;;;;;;;;;;;16.90;65.20;;;;;;5079242;28;872;-69
2023/04/10 04:02:22;;;;;;;;;;;16.90;66.00;;;;;;5073261;28;888;-68
2023/04/10 04:04:48;;;;;;;;;;;16.90;65.20;;;;;;5073905;28;986;-69
2023/04/10 04:07:13;;;;;;;;;;;16.90;65.10;;;;;;5075162;28;1267;-68
2023/04/10 04:09:40;;;;;;;;;;;16.90;65.10;;;;;;5076661;28;935;-69
2023/04/10 04:12:06;;;;;;;;;;;17.00;65.10;;;;;;5073759;28;1902;-68
2023/04/10 04:14:31;;;;;;;;;;;17.00;65.00;;;;;;5073399;28;824;-68
2023/04/10 04:16:57;;;;;;;;;;;17.00;65.00;;;;;;5075233;28;1354;-68
2023/04/10 04:19:22;;;;;;;;;;;17.00;64.90;;;;;;5075364;28;906;-68
2023/04/10 04:21:48;;;;;;;;;;;17.00;64.70;;;;;;5071761;28;843;-68
2023/04/10 04:24:13;;;;;;;;;;;17.10;64.70;;;;;;5070491;28;1219;-69
2023/04/10 04:26:39;;;;;;;;;;;17.10;64.50;;;;;;5074003;28;1358;-69
2023/04/10 04:29:04;;;;;;;;;;;17.20;64.40;;;;;;5070802;28;831;-68
2023/04/10 04:31:31;;;;;;;;;;;17.20;64.30;;;;;;5071409;28;1941;-68
2023/04/10 04:33:59;;;;;;;;;;;17.20;64.20;;;;;;5072113;28;808;-68
2023/04/10 04:36:26;;;;;;;;;;;17.30;64.10;;;;;;5073511;28;1373;-68
2023/04/10 04:38:52;;;;;;;;;;;17.30;64.00;;;;;;5074788;28;1063;-68
2023/04/10 04:41:17;;;;;;;;;;;17.30;63.80;;;;;;5078881;28;971;-68
2023/04/10 04:43:43;;;;;;;;;;;17.30;63.70;;;;;;5073972;28;871;-68
2023/04/10 04:46:08;;;;;;;;;;;17.40;63.70;;;;;;5057044;28;1272;-68
2023/04/10 04:48:34;;;;;;;;;;;17.40;63.70;;;;;;5073878;28;871;-68
2023/04/10 04:50:59;;;;;;;;;;;17.40;63.50;;;;;;5071529;28;1905;-72
2023/04/10 04:53:25;;;;;;;;;;;17.40;63.50;;;;;;5062907;28;1833;-66
2023/04/10 04:55:50;;;;;;;;;;;17.40;63.40;;;;;;5058830;28;1519;-66
2023/04/10 04:58:16;;;;;;;;;;;17.40;63.40;;;;;;5070758;28;1358;-66
2023/04/10 05:00:41;;;;;;;;;;;17.40;63.30;;;;;;5074461;28;833;-69
2023/04/10 05:03:06;;;;;;;;;;;17.50;63.30;;;;;;5069169;28;1671;-70
2023/04/10 05:05:32;;;;;;;;;;;17.50;63.30;;;;;;5070458;28;1283;-69
2023/04/10 05:07:57;;;;;;;;;;;17.50;63.20;;;;;;5072265;28;958;-67
2023/04/10 05:10:23;;;;;;;;;;;17.50;63.20;;;;;;5069246;28;899;-69
2023/04/10 05:12:48;;;;;;;;;;;17.50;63.10;;;;;;5063349;28;1914;-69
2023/04/10 05:15:14;;;;;;;;;;;17.50;63.10;;;;;;5068519;28;1253;-69
2023/04/10 05:17:40;;;;;;;;;;;17.50;63.10;;;;;;5072193;28;768;-70
2023/04/10 05:20:05;;;;;;;;;;;17.50;63.10;;;;;;5072760;28;868;-69
2023/04/10 05:22:31;;;;;;;;;;;17.50;63.10;;;;;;5071549;28;877;-69
2023/04/10 05:24:56;;;;;;;;;;;17.50;63.10;;;;;;5074495;28;887;-69
2023/04/10 05:27:22;;;;;;;;;;;17.50;63.10;;;;;;5075837;28;1265;-69
2023/04/10 05:29:47;;;;;;;;;;;17.60;63.10;;;;;;5073837;28;800;-68
2023/04/10 05:32:13;;;;;;;;;;;17.60;63.00;;;;;;5069635;28;1910;-70
2023/04/10 05:34:38;;;;;;;;;;;17.50;62.90;;;;;;5072780;28;970;-68
2023/04/10 05:37:04;;;;;;;;;;;17.60;63.00;;;;;;5076637;28;1364;-70
2023/04/10 05:39:29;;;;;;;;;;;17.60;63.00;;;;;;5068394;28;866;-69
2023/04/10 05:41:55;;;;;;;;;;;17.60;63.00;;;;;;5072785;28;807;-69
2023/04/10 05:44:21;;;;;;;;;;;17.60;63.00;;;;;;5067203;28;835;-69
2023/04/10 05:46:46;;;;;;;;;;;17.60;63.00;;;;;;5074570;28;1345;-69
2023/04/10 05:49:11;;;;;;;;;;;17.60;63.00;;;;;;5073756;28;916;-69
2023/04/10 05:51:37;;;;;;;;;;;17.60;63.00;;;;;;5066406;28;1957;-68
2023/04/10 05:54:03;;;;;;;;;;;17.60;63.00;;;;;;5070393;28;1261;-69
2023/04/10 05:56:28;;;;;;;;;;;17.60;63.00;;;;;;5074017;28;1252;-67
2023/04/10 05:58:54;;;;;;;;;;;17.50;63.00;;;;;;5066978;28;867;-67
2023/04/10 06:01:19;;;;;;;;;;;17.60;63.10;;;;;;5064936;28;829;-68
2023/04/10 06:03:45;;;;;;;;;;;17.60;63.10;;;;;;5071553;28;831;-70
2023/04/10 06:06:10;;;;;;;;;;;17.60;63.10;;;;;;5073803;28;1249;-69
2023/04/10 06:08:36;;;;;;;;;;;17.60;63.10;;;;;;5071529;28;892;-68
2023/04/10 06:11:01;;;;;;;;;;;17.50;63.10;;;;;;5071203;28;1891;-68
2023/04/10 06:13:27;;;;;;;;;;;17.50;63.10;;;;;;5067722;28;1015;-68
2023/04/10 06:15:52;;;;;;;;;;;17.50;63.10;;;;;;5074373;28;1287;-68
2023/04/10 06:18:18;;;;;;;;;;;17.50;63.10;;;;;;5069365;28;803;-70
2023/04/10 06:20:43;;;;;;;;;;;17.50;63.10;;;;;;5076809;28;840;-69
2023/04/10 06:23:10;;;;;;;;;;;17.50;63.10;;;;;;5071816;28;777;-69
2023/04/10 06:25:36;;;;;;;;;;;17.50;63.10;;;;;;5077551;28;1258;-69
2023/04/10 06:28:01;;;;;;;;;;;17.50;63.10;;;;;;5074731;28;1018;-68
2023/04/10 06:30:27;;;;;;;;;;;17.50;63.20;;;;;;5078664;28;773;-68
2023/04/10 06:32:52;;;;;;;;;;;17.50;63.20;;;;;;5076885;28;1960;-67
2023/04/10 06:35:18;;;;;;;;;;;17.50;63.20;;;;;;5075171;28;1304;-68
2023/04/10 06:37:43;;;;;;;;;;;17.50;63.20;;;;;;5079739;28;1173;-68
2023/04/10 06:40:09;;;;;;;;;;;17.50;63.30;;;;;;5072994;28;819;-69
2023/04/10 06:42:35;;;;;;;;;;;17.50;63.30;;;;;;5070839;28;1001;-68
2023/04/10 06:45:00;;;;;;;;;;;17.50;63.30;;;;;;5074717;28;858;-69
2023/04/10 06:47:26;;;;;;;;;;;17.50;63.30;;;;;;5060891;28;1400;-68
2023/04/10 06:49:51;;;;;;;;;;;17.50;63.40;;;;;;5072248;28;966;-68
2023/04/10 06:52:17;;;;;;;;;;;17.50;63.40;;;;;;5074984;28;1926;-69
2023/04/10 06:54:42;;;;;;;;;;;17.50;63.40;;;;;;5074016;28;1080;-69
2023/04/10 06:57:08;;;;;;;;;;;17.50;63.40;;;;;;5074496;28;1342;-69
2023/04/10 06:59:34;;;;;;;;;;;17.50;63.50;;;;;;5061691;28;1425;-68
2023/04/10 07:02:00;;;;;;;;;;;17.40;63.40;;;;;;5062496;28;843;-69
2023/04/10 07:04:25;;;;;;;;;;;17.40;63.50;;;;;;5072002;28;2119;-68
2023/04/10 07:06:51;;;;;;;;;;;17.40;63.40;;;;;;5075300;28;1856;-68
2023/04/10 07:09:16;;;;;;;;;;;17.40;63.50;;;;;;5076010;28;1388;-68
2023/04/10 07:11:42;;;;;;;;;;;17.40;63.50;;;;;;5071638;28;1906;-69
2023/04/10 07:14:07;;;;;;;;;;;17.40;63.50;;;;;;5074033;28;1131;-68
2023/04/10 07:16:33;;;;;;;;;;;17.40;63.50;;;;;;5074859;28;1350;-68
2023/04/10 07:18:58;;;;;;;;;;;17.40;64.20;;;;;;5071888;28;1006;-68
2023/04/10 07:21:24;;;;;;;;;;;17.50;63.50;;;;;;5077628;28;868;-68
2023/04/10 07:23:49;;;;;;;;;;;17.50;63.50;;;;;;5075737;28;851;-69
2023/04/10 07:26:15;;;;;;;;;;;17.50;63.50;;;;;;5074018;28;1231;-68
2023/04/10 07:28:40;;;;;;;;;;;17.50;63.50;;;;;;5076306;28;1328;-68
2023/04/10 07:31:07;;;;;;;;;;;17.50;63.40;;;;;;5076969;28;1958;-68
2023/04/10 07:33:32;;;;;;;;;;;17.50;63.40;;;;;;5071858;28;848;-68
2023/04/10 07:35:58;;;;;;;;;;;17.50;63.30;;;;;;5074352;28;1275;-69
2023/04/10 07:38:23;;;;;;;;;;;17.50;63.30;;;;;;5073344;28;1634;-69
2023/04/10 07:40:54;;;;;;;;;;;17.50;63.30;;;;;;5079335;28;919;-69
2023/04/10 07:43:20;;;;;;;;;;;17.50;63.30;;;;;;5079812;28;863;-69
2023/04/10 07:45:46;;;;;;;;;;;17.50;63.30;;;;;;5072185;28;1351;-69
2023/04/10 07:48:11;;;;;;;;;;;17.50;63.30;;;;;;5075964;28;832;-69
2023/04/10 07:50:37;;;;;;;;;;;17.50;63.30;;;;;;5074511;28;853;-69
2023/04/10 07:53:06;;;;;;;;;;;17.60;64.10;;;;;;5078813;28;1965;-69
2023/04/10 07:55:36;;;;;;;;;;;17.60;63.30;;;;;;5074893;28;1287;-68
2023/04/10 07:58:01;;;;;;;;;;;17.60;63.30;;;;;;5077547;28;1034;-68
2023/04/10 08:00:27;;;;;;;;;;;17.60;63.30;;;;;;5079086;28;842;-69
2023/04/10 08:02:52;;;;;;;;;;;17.60;63.30;;;;;;5082658;28;951;-69
2023/04/10 08:05:18;;;;;;;;;;;17.60;63.30;;;;;;5075690;28;1282;-68
2023/04/10 08:07:43;;;;;;;;;;;17.60;63.20;;;;;;5072601;28;1193;-69
2023/04/10 08:10:09;;;;;;;;;;;17.60;63.20;;;;;;5074694;28;927;-68
2023/04/10 08:12:34;;;;;;;;;;;17.60;63.20;;;;;;5075177;28;1898;-69
2023/04/10 08:15:00;;;;;;;;;;;17.60;63.20;;;;;;5070833;28;800;-69
2023/04/10 08:17:26;;;;;;;;;;;17.60;63.20;;;;;;5072459;28;1256;-69
2023/04/10 08:19:51;;;;;;;;;;;17.60;63.20;;;;;;5072781;28;886;-69
2023/04/10 08:22:16;;;;;;;;;;;17.60;63.10;;;;;;5073747;28;847;-69
2023/04/10 08:24:42;;;;;;;;;;;17.60;63.10;;;;;;5074560;28;1038;-69
2023/04/10 08:27:07;;;;;;;;;;;17.60;63.10;;;;;;5068333;28;1347;-68
2023/04/10 08:29:33;;;;;;;;;;;17.60;63.10;;;;;;5074735;28;1302;-69
2023/04/10 08:31:59;;;;;;;;;;;17.60;63.10;;;;;;5073737;28;1889;-68
2023/04/10 08:34:25;;;;;;;;;;;17.60;63.10;;;;;;5074002;28;840;-68
2023/04/10 08:36:51;;;;;;;;;;;17.60;63.10;;;;;;5074406;28;1368;-68
2023/04/10 08:39:17;;;;;;;;;;;17.60;63.20;;;;;;5073771;28;912;-68
2023/04/10 08:41:42;;;;;;;;;;;17.60;63.20;;;;;;5073997;28;847;-67
2023/04/10 08:44:09;;;;;;;;;;;17.60;63.20;;;;;;5072620;28;931;-67
2023/04/10 08:46:35;;;;;;;;;;;17.60;63.20;;;;;;5072828;28;1314;-68
2023/04/10 08:49:00;;;;;;;;;;;17.60;63.20;;;;;;5073784;28;882;-68
2023/04/10 08:51:27;;;;;;;;;;;17.60;63.20;;;;;;5075680;28;1902;-67
2023/04/10 08:53:55;;;;;;;;;;;17.60;63.10;;;;;;5074934;28;1458;-68
2023/04/10 08:56:21;;;;;;;;;;;17.60;63.20;;;;;;5072745;28;1283;-67
2023/04/10 08:58:46;;;;;;;;;;;17.60;63.20;;;;;;5073957;28;863;-70
2023/04/10 09:01:12;;;;;;;;;;;17.60;63.20;;;;;;5073158;28;851;-68
2023/04/10 09:03:37;;;;;;;;;;;17.60;63.90;;;;;;5058653;28;871;-68
2023/04/10 09:06:03;;;;;;;;;;;17.60;63.10;;;;;;5076529;28;1342;-68
2023/04/10 09:08:29;;;;;;;;;;;17.60;63.20;;;;;;5074563;28;1285;-70
2023/04/10 09:10:55;;;;;;;;;;;17.60;63.10;;;;;;5070317;28;2070;-69
2023/04/10 09:13:46;;;;;;;;;;;17.60;63.10;;;;;;5070557;28;2232;-67
2023/04/10 09:16:12;;;;;;;;;;;17.60;63.10;;;;;;5066666;28;1577;-67
2023/04/10 09:19:04;;;;;;;;;;;17.60;63.10;;;;;;5065629;28;1410;-67
2023/04/10 09:21:30;;;;;;;;;;;17.60;63.10;;;;;;5068043;28;1320;-66
2023/04/10 09:23:59;;;;;;;;;;;17.60;63.10;;;;;;5066169;28;1676;-68
2023/04/10 09:26:26;;;;;;;;;;;17.60;63.10;;;;;;5069258;28;1275;-68
2023/04/10 09:28:55;;;;;;;;;;;17.60;63.10;;;;;;5071129;28;1295;-68
2023/04/10 09:31:31;;;;;;;;;;;17.60;63.10;;;;;;5075202;28;1902;-68
2023/04/10 09:34:13;;;;;;;;;;;17.60;63.10;;;;;;5068441;28;900;-68
2023/04/10 09:36:40;;;;;;;;;;;17.60;63.20;;;;;;5068490;28;1345;-68
2023/04/10 09:39:06;;;;;;;;;;;17.60;63.20;;;;;;5061398;28;984;-68
2023/04/10 09:41:31;;;;;;;;;;;17.60;63.20;;;;;;5060296;28;871;-68
2023/04/10 09:44:07;;;;;;;;;;;17.60;63.20;;;;;;5072810;28;891;-68
2023/04/10 09:46:33;;;;;;;;;;;17.60;63.20;;;;;;5073419;28;1354;-68
2023/04/10 09:49:03;;;;;;;;;;;17.60;63.30;;;;;;5074412;28;944;-69
2023/04/10 09:51:29;;;;;;;;;;;17.60;63.30;;;;;;5068150;28;1957;-68
2023/04/10 09:53:55;;;;;;;;;;;17.60;63.30;;;;;;5070980;28;1398;-68
2023/04/10 09:56:21;;;;;;;;;;;17.60;63.40;;;;;;5069835;28;1502;-69
2023/04/10 09:58:47;;;;;;;;;;;17.50;63.30;;;;;;5072532;28;1378;-67
2023/04/10 10:01:12;;;;;;;;;;;17.50;63.30;;;;;;5072725;28;1400;-67
2023/04/10 10:03:38;;;;;;;;;;;17.50;63.40;;;;;;5072443;28;1298;-67
2023/04/10 10:06:03;;;;;;;;;;;17.50;63.40;;;;;;5066973;28;1943;-68
2023/04/10 10:08:29;;;;;;;;;;;17.50;63.40;;;;;;5066302;28;2000;-70
2023/04/10 10:10:55;;;;;;;;;;;17.50;63.40;;;;;;5072558;28;1333;-69
2023/04/10 10:13:27;;;;;;;;;;;17.50;63.50;;;;;;5066577;28;1902;-67
2023/04/10 10:15:53;;;;;;;;;;;17.50;63.50;;;;;;5059430;28;1457;-67
2023/04/10 10:18:20;;;;;;;;;;;17.50;63.50;;;;;;5071923;28;843;-67
2023/04/10 10:20:46;;;;;;;;;;;17.50;63.50;;;;;;5057429;28;1309;-68
2023/04/10 10:23:11;;;;;;;;;;;17.50;63.60;;;;;;5073185;28;891;-68
2023/04/10 10:25:37;;;;;;;;;;;17.50;63.60;;;;;;5069070;28;1248;-68
2023/04/10 10:28:03;;;;;;;;;;;17.50;63.70;;;;;;5072254;28;1799;-68
2023/04/10 10:30:30;;;;;;;;;;;17.50;63.70;;;;;;5072821;28;1448;-70
2023/04/10 10:32:57;;;;;;;;;;;17.50;63.70;;;;;;5065437;28;1906;-70
2023/04/10 10:35:23;;;;;;;;;;;17.50;63.80;;;;;;5054365;28;1325;-70
2023/04/10 10:37:48;;;;;;;;;;;17.40;63.70;;;;;;5076371;28;1372;-70
2023/04/10 10:40:35;;;;;;;;;;;17.40;63.70;;;;;;5073249;28;780;-70
2023/04/10 10:43:19;;;;;;;;;;;17.50;63.80;;;;;;5073627;28;846;-70
2023/04/10 10:45:53;;;;;;;;;;;17.50;63.80;;;;;;5072297;28;1251;-70
2023/04/10 10:48:18;;;;;;;;;;;17.40;63.80;;;;;;5068115;28;820;-70
2023/04/10 10:50:55;;;;;;;;;;;17.40;63.80;;;;;;5069041;28;872;-70
2023/04/10 10:53:41;;;;;;;;;;;17.40;63.80;;;;;;5072841;28;1890;-70
2023/04/10 10:56:18;;;;;;;;;;;17.40;63.80;;;;;;5069924;28;1346;-70
2023/04/10 10:58:54;;;;;;;;;;;17.40;63.90;;;;;;5069627;28;1054;-70
2023/04/10 11:01:21;;;;;;;;;;;17.40;64.00;;;;;;5062279;28;848;-70
2023/04/10 11:03:46;;;;;;;;;;;17.40;64.00;;;;;;5070911;28;867;-70
2023/04/10 11:06:14;;;;;;;;;;;17.40;64.00;;;;;;5080698;28;1353;-70
2023/04/10 11:08:50;;;;;;;;;;;17.40;64.00;;;;;;5074888;28;868;-70
2023/04/10 11:11:22;;;;;;;;;;;17.40;64.10;;;;;;5070436;28;1989;-70
2023/04/10 11:13:56;;;;;;;;;;;17.40;64.10;;;;;;5076407;28;1022;-70
2023/04/10 11:16:22;;;;;;;;;;;17.40;64.10;;;;;;5074345;28;1328;-70
2023/04/10 11:18:48;;;;;;;;;;;17.40;64.20;;;;;;5076173;28;904;-70
2023/04/10 11:21:14;;;;;;;;;;;17.40;64.10;;;;;;5075490;28;1018;-70
2023/04/10 11:23:48;;;;;;;;;;;17.40;64.20;;;;;;5074524;28;895;-70
2023/04/10 11:26:38;;;;;;;;;;;17.40;64.20;;;;;;5074841;28;1334;-70
2023/04/10 11:29:06;;;;;;;;;;;17.40;64.20;;;;;;5075871;28;824;-71
2023/04/10 11:31:32;;;;;;;;;;;17.40;64.20;;;;;;5073018;28;1894;-71
2023/04/10 11:34:07;;;;;;;;;;;17.30;64.20;;;;;;5077810;28;867;-70
2023/04/10 11:36:33;;;;;;;;;;;17.30;64.20;;;;;;5075241;28;1303;-71
2023/04/10 11:39:08;;;;;;;;;;;17.30;64.20;;;;;;5080043;28;1458;-70
2023/04/10 11:41:34;;;;;;;;;;;17.30;64.30;;;;;;5075898;28;820;-70
2023/04/10 11:44:00;;;;;;;;;;;17.30;64.30;;;;;;5072399;28;903;-71
2023/04/10 11:46:26;;;;;;;;;;;17.30;64.30;;;;;;5077627;28;1377;-70
2023/04/10 11:48:58;;;;;;;;;;;17.30;64.30;;;;;;5070145;28;779;-71
2023/04/10 11:51:23;;;;;;;;;;;17.30;64.30;;;;;;5068688;28;1965;-70
2023/04/10 11:53:49;;;;;;;;;;;17.30;64.40;;;;;;5074013;28;2015;-71
2023/04/10 11:56:18;;;;;;;;;;;17.30;65.10;;;;;;5074097;28;1428;-70
2023/04/10 11:58:44;;;;;;;;;;;17.30;64.40;;;;;;5072446;28;1370;-70
2023/04/10 12:01:13;;;;;;;;;;;17.30;64.40;;;;;;5071100;28;2213;-69
2023/04/10 12:03:42;;;;;;;;;;;17.30;64.50;;;;;;5079840;28;1172;-69
2023/04/10 12:06:11;;;;;;;;;;;17.30;65.20;;;;;;5075785;28;1424;-67
2023/04/10 12:08:37;;;;;;;;;;;17.30;64.40;;;;;;5074586;28;805;-69
2023/04/10 12:11:03;;;;;;;;;;;17.30;59.50;;;;;;5070308;28;1963;-68
2023/04/10 12:13:29;;;;;;;;;;;17.30;58.00;;;;;;5072778;28;942;-70
2023/04/10 12:15:59;;;;;;;;;;;17.40;59.20;;;;;;5071435;28;1360;-68
2023/04/10 12:18:25;;;;;;;;;;;17.40;58.80;;;;;;5069435;28;1464;-69
2023/04/10 12:20:54;;;;;;;;;;;17.40;58.30;;;;;;5076717;28;962;-67
2023/04/10 12:23:21;;;;;;;;;;;17.40;57.90;;;;;;5075494;28;900;-69
2023/04/10 12:25:46;;;;;;;;;;;17.40;58.30;;;;;;5075066;28;1240;-68
2023/04/10 12:28:30;;;;;;;;;;;17.50;58.60;;;;;;5075950;28;1276;-67
2023/04/10 12:30:56;;;;;;;;;;;17.50;58.10;;;;;;5075700;28;863;-68
2023/04/10 12:33:21;;;;;;;;;;;17.50;57.80;;;;;;5070224;28;1918;-67
2023/04/10 12:35:47;;;;;;;;;;;17.50;57.10;;;;;;5067898;28;1314;-67
2023/04/10 12:38:12;;;;;;;;;;;17.50;55.70;;;;;;5076340;28;1464;-67
2023/04/10 12:40:40;;;;;;;;;;;17.50;56.20;;;;;;5076876;28;855;-69
2023/04/10 12:43:05;;;;;;;;;;;17.50;55.70;;;;;;5074142;28;864;-70
2023/04/10 12:45:41;;;;;;;;;;;17.50;55.90;;;;;;5077709;28;1304;-67
2023/04/10 12:48:07;;;;;;;;;;;17.50;56.80;;;;;;5072517;28;860;-68
2023/04/10 12:50:32;;;;;;;;;;;17.50;56.20;;;;;;5053283;28;1370;-68
2023/04/10 12:53:08;;;;;;;;;;;17.50;54.70;;;;;;5073235;28;1906;-71
2023/04/10 12:55:33;;;;;;;;;;;17.50;55.40;;;;;;5070203;28;1422;-68
2023/04/10 12:57:59;;;;;;;;;;;17.50;54.50;;;;;;5076092;28;1392;-68
2023/04/10 13:00:25;;;;;;;;;;;17.50;54.10;;;;;;5072111;28;1624;-70
2023/04/10 13:02:50;;;;;;;;;;;17.50;53.40;;;;;;5078654;28;1318;-70
2023/04/10 13:05:16;;;;;;;;;;;17.60;54.60;;;;;;5073987;28;1512;-69
2023/04/10 13:07:41;;;;;;;;;;;17.60;54.20;;;;;;5074872;28;867;-69
2023/04/10 13:10:07;;;;;;;;;;;17.60;54.80;;;;;;5071835;28;860;-69
2023/04/10 13:12:33;;;;;;;;;;;17.50;54.60;;;;;;5072984;28;1918;-72
2023/04/10 13:15:00;;;;;;;;;;;17.60;54.50;;;;;;5079032;28;1752;-69
2023/04/10 13:17:26;;;;;;;;;;;17.60;52.70;;;;;;5081237;28;1283;-70
2023/04/10 13:19:51;;;;;;;;;;;17.50;53.30;;;;;;5072143;28;840;-69
2023/04/10 13:22:17;;;;;;;;;;;17.50;53.30;;;;;;5072295;28;1202;-70
2023/04/10 13:24:42;;;;;;;;;;;17.60;54.20;;;;;;5068806;28;832;-68
2023/04/10 13:27:08;;;;;;;;;;;17.60;54.30;;;;;;5076384;28;1340;-69
2023/04/10 13:29:34;;;;;;;;;;;17.50;52.90;;;;;;5075170;28;809;-70
2023/04/10 13:32:00;;;;;;;;;;;17.60;52.60;;;;;;5073389;28;1922;-69
2023/04/10 13:34:26;;;;;;;;;;;17.50;52.80;;;;;;5073117;28;912;-69
2023/04/10 13:36:52;;;;;;;;;;;17.60;53.10;;;;;;5073960;28;1643;-70
2023/04/10 13:39:17;;;;;;;;;;;17.60;52.80;;;;;;5070167;28;863;-69
2023/04/10 13:41:43;;;;;;;;;;;17.50;53.10;;;;;;5067861;28;883;-69
2023/04/10 13:44:08;;;;;;;;;;;17.50;54.30;;;;;;5069494;28;1002;-69
2023/04/10 13:46:34;;;;;;;;;;;17.50;55.00;;;;;;5072997;28;1223;-69
2023/04/10 13:48:59;;;;;;;;;;;17.50;55.30;;;;;;5070734;28;859;-69
2023/04/10 13:51:25;;;;;;;;;;;17.50;55.80;;;;;;5075713;28;1902;-69
2023/04/10 13:53:50;;;;;;;;;;;17.40;56.40;;;;;;5060413;28;864;-69
2023/04/10 13:56:16;;;;;;;;;;;17.40;56.90;;;;;;5071592;28;1293;-69
2023/04/10 13:58:41;;;;;;;;;;;17.40;57.00;;;;;;5073135;28;845;-69
2023/04/10 14:01:07;;;;;;;;;;;17.40;57.00;;;;;;5076363;28;1217;-69
2023/04/10 14:03:32;;;;;;;;;;;17.30;57.20;;;;;;5078626;28;844;-69
2023/04/10 14:05:58;;;;;;;;;;;17.30;57.60;;;;;;5070550;28;1320;-71
2023/04/10 14:08:23;;;;;;;;;;;17.30;57.80;;;;;;5070035;28;1064;-70
2023/04/10 14:10:51;;;;;;;;;;;17.30;58.00;;;;;;5073650;28;1145;-71
2023/04/10 14:13:17;;;;;;;;;;;17.30;58.10;;;;;;5072720;28;1898;-74
2023/04/10 14:15:43;;;;;;;;;;;17.30;58.30;;;;;;5062051;28;1326;-70
2023/04/10 14:18:08;;;;;;;;;;;17.30;58.50;;;;;;5070551;28;1343;-73
2023/04/10 14:20:34;;;;;;;;;;;17.30;58.60;;;;;;5075985;28;1445;-69
2023/04/10 14:22:59;;;;;;;;;;;17.20;58.70;;;;;;5075640;28;1274;-74
2023/04/10 14:25:25;;;;;;;;;;;17.20;58.80;;;;;;5070297;28;1319;-69
2023/04/10 14:27:50;;;;;;;;;;;17.20;58.90;;;;;;5070275;28;1427;-71
2023/04/10 14:30:16;;;;;;;;;;;17.20;59.10;;;;;;5072160;28;1685;-69
2023/04/10 14:32:42;;;;;;;;;;;17.20;59.10;;;;;;5073399;28;1949;-68